createdAt,value
2023-05-22T00:00:13.553Z,20.53
2023-05-22T00:02:43.067Z,20.70
2023-05-22T00:05:11.760Z,18.87
2023-05-22T00:07:39.319Z,20.30
2023-05-22T00:10:06.701Z,21.00
2023-05-22T00:12:33.280Z,20.60
2023-05-22T00:15:00.230Z,18.93
2023-05-22T00:17:27.122Z,20.70
2023-05-22T00:19:55.160Z,20.77
2023-05-22T00:22:21.863Z,19.27
2023-05-22T00:24:48.365Z,17.80
2023-05-22T00:27:14.831Z,19.27
2023-05-22T00:29:41.405Z,19.03
2023-05-22T00:32:07.917Z,19.17
2023-05-22T00:34:34.493Z,19.47
2023-05-22T00:37:01.068Z,18.50
2023-05-22T00:39:27.535Z,19.00
2023-05-22T00:41:53.990Z,18.07
2023-05-22T00:44:20.479Z,20.30
2023-05-22T00:46:46.982Z,20.00
2023-05-22T00:49:13.480Z,19.27
2023-05-22T00:51:40.086Z,19.07
2023-05-22T00:54:06.696Z,19.00
2023-05-22T00:56:33.677Z,19.90
2023-05-22T00:59:00.403Z,19.63
2023-05-22T01:01:33.452Z,18.40
2023-05-22T01:04:02.032Z,21.83
2023-05-22T01:06:28.800Z,19.83
2023-05-22T01:08:55.315Z,19.70
2023-05-22T01:11:26.476Z,20.33
2023-05-22T01:14:20.939Z,17.27
2023-05-22T01:16:54.551Z,17.87
2023-05-22T01:19:43.698Z,19.60
2023-05-22T01:22:30.226Z,17.07
2023-05-22T01:25:35.402Z,16.20
2023-05-22T01:28:22.214Z,18.40
2023-05-22T01:31:02.259Z,17.33
2023-05-22T01:33:32.324Z,15.00
2023-05-22T01:36:01.355Z,18.23
2023-05-22T01:38:28.039Z,18.97
2023-05-22T01:40:55.185Z,16.30
2023-05-22T01:43:21.656Z,16.67
2023-05-22T01:45:48.326Z,16.63
2023-05-22T01:48:14.849Z,16.40
2023-05-22T01:50:41.809Z,16.67
2023-05-22T01:53:16.797Z,15.43
2023-05-22T01:55:50.444Z,14.67
2023-05-22T01:58:45.571Z,15.27
2023-05-22T02:01:13.357Z,15.63
2023-05-22T02:03:40.329Z,14.63
2023-05-22T02:06:09.291Z,15.00
2023-05-22T02:08:37.614Z,15.77
2023-05-22T02:11:05.290Z,16.30
2023-05-22T02:13:31.801Z,15.43
2023-05-22T02:15:58.505Z,15.20
2023-05-22T02:18:31.500Z,16.57
2023-05-22T02:20:58.372Z,15.43
2023-05-22T02:23:25.622Z,21.67
2023-05-22T02:25:52.273Z,20.70
2023-05-22T02:28:18.733Z,19.73
2023-05-22T02:30:45.266Z,17.73
2023-05-22T02:33:11.826Z,40.53
2023-05-22T02:35:38.484Z,26.80
2023-05-22T02:38:04.949Z,23.03
2023-05-22T02:40:34.016Z,91.57
2023-05-22T02:43:00.585Z,38.77
2023-05-22T02:45:27.090Z,47.00
2023-05-22T02:47:54.048Z,46.87
2023-05-22T02:50:20.547Z,77.50
2023-05-22T02:52:47.635Z,73.03
2023-05-22T02:55:14.103Z,42.33
2023-05-22T02:57:40.737Z,113.70
2023-05-22T03:00:10.650Z,140.63
2023-05-22T03:02:38.879Z,67.93
2023-05-22T03:05:06.217Z,89.90
2023-05-22T03:07:32.722Z,100.80
2023-05-22T03:09:59.357Z,62.80
2023-05-22T03:12:25.958Z,85.60
2023-05-22T03:14:52.404Z,77.57
2023-05-22T03:17:18.920Z,31.57
2023-05-22T03:19:45.392Z,69.37
2023-05-22T03:22:11.927Z,50.07
2023-05-22T03:24:38.376Z,35.30
2023-05-22T03:27:05.425Z,32.30
2023-05-22T03:29:31.993Z,39.57
2023-05-22T03:31:58.956Z,61.80
2023-05-22T03:34:27.083Z,63.90
2023-05-22T03:36:54.096Z,29.97
2023-05-22T03:39:20.689Z,50.33
2023-05-22T03:41:47.272Z,61.23
2023-05-22T03:44:13.764Z,31.70
2023-05-22T03:46:40.311Z,30.27
2023-05-22T03:49:06.814Z,25.27
2023-05-22T03:51:33.318Z,25.43
2023-05-22T03:53:59.843Z,27.90
2023-05-22T03:56:27.057Z,28.47
2023-05-22T03:58:53.611Z,30.00
2023-05-22T04:01:20.828Z,28.60
2023-05-22T04:03:47.672Z,26.37
2023-05-22T04:06:14.654Z,25.70
2023-05-22T04:08:41.149Z,26.40
2023-05-22T04:11:08.276Z,25.73
2023-05-22T04:13:35.799Z,27.10
2023-05-22T04:16:04.198Z,25.33
2023-05-22T04:18:33.806Z,26.10
2023-05-22T04:21:00.819Z,24.87
2023-05-22T04:23:27.311Z,23.67
2023-05-22T04:25:53.826Z,24.00
2023-05-22T04:28:23.297Z,24.17
2023-05-22T04:30:50.174Z,27.03
2023-05-22T04:33:18.096Z,27.87
2023-05-22T04:35:44.713Z,25.23
2023-05-22T04:38:11.259Z,26.73
2023-05-22T04:40:38.209Z,21.73
2023-05-22T04:43:05.061Z,22.63
2023-05-22T04:45:32.837Z,22.13
2023-05-22T04:48:02.392Z,25.37
2023-05-22T04:50:32.655Z,24.30
2023-05-22T04:52:59.899Z,27.73
2023-05-22T04:55:29.546Z,22.80
2023-05-22T04:57:56.418Z,23.90
2023-05-22T05:00:26.399Z,24.30
2023-05-22T05:02:53.495Z,22.43
2023-05-22T05:05:20.289Z,25.87
2023-05-22T05:07:50.108Z,23.73
2023-05-22T05:10:17.132Z,25.20
2023-05-22T05:12:43.808Z,24.80
2023-05-22T05:15:10.831Z,26.07
2023-05-22T05:17:38.396Z,25.27
2023-05-22T05:20:07.314Z,26.67
2023-05-22T05:22:34.062Z,23.53
2023-05-22T05:25:01.189Z,26.30
2023-05-22T05:27:27.856Z,26.40
2023-05-22T05:29:54.676Z,26.37
2023-05-22T05:32:21.237Z,24.67
2023-05-22T05:34:47.836Z,23.70
2023-05-22T05:37:14.327Z,26.27
2023-05-22T05:39:40.843Z,23.87
2023-05-22T05:42:07.435Z,21.63
2023-05-22T05:44:34.009Z,23.37
2023-05-22T05:47:01.053Z,23.70
2023-05-22T05:49:27.670Z,24.83
2023-05-22T05:51:54.182Z,24.33
2023-05-22T05:54:21.277Z,24.60
2023-05-22T05:56:48.155Z,27.30
2023-05-22T05:59:14.756Z,24.23
2023-05-22T06:01:45.816Z,22.90
2023-05-22T06:04:13.285Z,23.20
2023-05-22T06:06:40.139Z,24.20
2023-05-22T06:09:06.725Z,23.37
2023-05-22T06:11:33.608Z,23.43
2023-05-22T06:14:04.792Z,21.10
2023-05-22T06:16:31.816Z,23.17
2023-05-22T06:18:59.142Z,25.80
2023-05-22T06:21:26.107Z,23.20
2023-05-22T06:23:52.773Z,24.93
2023-05-22T06:26:19.384Z,22.83
2023-05-22T06:28:45.880Z,22.80
2023-05-22T06:31:12.496Z,22.63
2023-05-22T06:33:40.735Z,23.40
2023-05-22T06:36:08.824Z,23.93
2023-05-22T06:38:35.452Z,23.37
2023-05-22T06:41:02.019Z,26.07
2023-05-22T06:43:28.519Z,23.53
2023-05-22T06:45:55.075Z,22.63
2023-05-22T06:48:22.042Z,21.07
2023-05-22T06:50:48.548Z,24.87
2023-05-22T06:53:15.016Z,24.27
2023-05-22T06:55:42.447Z,31.87
2023-05-22T06:58:09.378Z,30.63
2023-05-22T07:00:39.146Z,26.90
2023-05-22T07:03:06.884Z,28.87
2023-05-22T07:05:33.584Z,28.00
2023-05-22T07:08:00.226Z,27.13
2023-05-22T07:10:27.710Z,24.80
2023-05-22T07:12:54.655Z,27.03
2023-05-22T07:15:21.398Z,27.23
2023-05-22T07:17:49.449Z,29.30
2023-05-22T07:20:17.677Z,27.93
2023-05-22T07:22:44.232Z,29.10
2023-05-22T07:25:10.870Z,29.40
2023-05-22T07:27:37.715Z,28.93
2023-05-22T07:30:04.639Z,25.70
2023-05-22T07:32:31.281Z,25.03
2023-05-22T07:34:57.953Z,25.17
2023-05-22T07:37:24.655Z,26.27
2023-05-22T07:39:51.179Z,25.00
2023-05-22T07:42:17.738Z,25.47
2023-05-22T07:44:44.229Z,26.57
2023-05-22T07:47:10.799Z,27.37
2023-05-22T07:49:37.297Z,26.90
2023-05-22T07:52:03.976Z,25.33
2023-05-22T07:54:30.563Z,23.50
2023-05-22T07:56:57.449Z,30.33
2023-05-22T07:59:25.294Z,26.30
2023-05-22T08:01:52.006Z,26.13
2023-05-22T08:04:18.778Z,28.30
2023-05-22T08:06:45.391Z,25.97
2023-05-22T08:09:12.025Z,28.43
2023-05-22T08:11:42.031Z,25.93
2023-05-22T08:14:08.964Z,26.20
2023-05-22T08:16:35.560Z,30.50
2023-05-22T08:19:02.521Z,32.70
2023-05-22T08:21:29.287Z,34.57
2023-05-22T08:23:56.060Z,33.77
2023-05-22T08:26:23.166Z,35.17
2023-05-22T08:28:49.680Z,42.70
2023-05-22T08:31:16.302Z,42.87
2023-05-22T08:33:43.130Z,42.50
2023-05-22T08:36:09.808Z,47.57
2023-05-22T08:38:37.173Z,45.13
2023-05-22T08:41:05.171Z,42.83
2023-05-22T08:43:32.011Z,41.00
2023-05-22T08:46:09.283Z,39.97
2023-05-22T08:48:37.254Z,39.27
2023-05-22T08:51:05.777Z,37.63
2023-05-22T08:53:38.790Z,37.57
2023-05-22T08:56:06.885Z,38.40
2023-05-22T08:58:35.148Z,38.90
2023-05-22T09:01:02.118Z,39.70
2023-05-22T09:03:32.906Z,35.80
2023-05-22T09:05:59.924Z,34.60
2023-05-22T09:08:27.413Z,33.27
2023-05-22T09:10:57.579Z,34.03
2023-05-22T09:13:27.223Z,32.37
2023-05-22T09:15:58.377Z,28.87
2023-05-22T09:18:27.396Z,24.80
2023-05-22T09:20:53.906Z,27.70
2023-05-22T09:23:22.135Z,27.97
2023-05-22T09:25:48.729Z,28.80
2023-05-22T09:28:15.229Z,26.80
2023-05-22T09:30:42.653Z,25.60
2023-05-22T09:33:12.915Z,26.63
2023-05-22T09:35:39.781Z,26.97
2023-05-22T09:38:06.516Z,28.87
2023-05-22T09:40:34.933Z,25.90
2023-05-22T09:43:02.532Z,27.07
2023-05-22T09:45:29.017Z,27.30
2023-05-22T09:47:55.647Z,27.37
2023-05-22T09:50:22.316Z,26.93
2023-05-22T09:52:50.732Z,24.57
2023-05-22T09:55:19.084Z,25.00
2023-05-22T09:57:46.355Z,29.57
2023-05-22T10:00:18.330Z,27.57
2023-05-22T10:02:46.959Z,27.57
2023-05-22T10:05:23.503Z,24.97
2023-05-22T10:07:52.105Z,24.10
2023-05-22T10:10:21.980Z,26.77
2023-05-22T10:12:52.772Z,25.80
2023-05-22T10:15:19.875Z,29.33
2023-05-22T10:17:47.860Z,29.30
2023-05-22T10:20:15.987Z,26.20
2023-05-22T10:22:44.517Z,24.77
2023-05-22T10:25:11.627Z,26.83
2023-05-22T10:27:39.362Z,29.00
2023-05-22T10:30:36.348Z,27.77
2023-05-22T10:33:21.891Z,22.20
2023-05-22T10:36:10.527Z,25.57
2023-05-22T10:38:55.917Z,26.20
2023-05-22T10:41:23.134Z,22.97
2023-05-22T10:43:50.744Z,27.70
2023-05-22T10:46:17.945Z,24.97
2023-05-22T10:48:46.297Z,28.23
2023-05-22T10:51:15.541Z,25.43
2023-05-22T10:53:45.401Z,21.30
2023-05-22T10:56:13.282Z,22.47
2023-05-22T10:58:42.575Z,19.37
2023-05-22T11:01:16.901Z,20.60
2023-05-22T11:03:56.677Z,20.17
2023-05-22T11:06:37.700Z,19.40
2023-05-22T11:09:26.169Z,19.93
2023-05-22T11:12:13.348Z,19.13
2023-05-22T11:14:39.952Z,19.53
2023-05-22T11:17:06.845Z,18.53
2023-05-22T11:19:33.602Z,18.50
2023-05-22T11:22:01.353Z,18.63
2023-05-22T11:24:33.131Z,19.17
2023-05-22T11:27:05.964Z,18.67
2023-05-22T11:29:32.865Z,19.87
2023-05-22T11:31:59.821Z,19.03
2023-05-22T11:34:26.371Z,17.93
2023-05-22T11:36:53.295Z,18.57
2023-05-22T11:39:19.789Z,16.60
2023-05-22T11:41:46.286Z,17.60
2023-05-22T11:44:12.741Z,18.37
2023-05-22T11:46:39.853Z,17.47
2023-05-22T11:49:09.253Z,18.40
2023-05-22T11:51:38.845Z,15.73
2023-05-22T11:54:05.466Z,17.20
2023-05-22T11:56:31.999Z,16.93
2023-05-22T11:58:58.900Z,20.63
2023-05-22T12:01:25.463Z,17.20
2023-05-22T12:03:52.044Z,17.20
2023-05-22T12:06:18.717Z,18.17
2023-05-22T12:08:45.417Z,18.10
2023-05-22T12:11:12.601Z,15.17
2023-05-22T12:13:39.275Z,16.90
2023-05-22T12:16:18.652Z,18.40
2023-05-22T12:18:45.310Z,18.50
2023-05-22T12:21:11.843Z,19.77
2023-05-22T12:23:47.687Z,19.90
2023-05-22T12:26:14.199Z,19.83
2023-05-22T12:28:40.730Z,19.30
2023-05-22T12:31:07.284Z,18.17
2023-05-22T12:33:33.904Z,18.40
2023-05-22T12:36:00.496Z,19.87
2023-05-22T12:38:28.337Z,18.90
2023-05-22T12:40:55.630Z,19.73
2023-05-22T12:43:25.503Z,18.03
2023-05-22T12:45:52.523Z,17.90
2023-05-22T12:48:19.758Z,19.50
2023-05-22T12:50:46.804Z,19.37
2023-05-22T12:53:13.434Z,17.93
2023-05-22T12:55:40.069Z,17.10
2023-05-22T12:58:06.842Z,17.40
2023-05-22T13:00:34.820Z,18.83
2023-05-22T13:03:01.701Z,20.43
2023-05-22T13:05:29.807Z,19.33
2023-05-22T13:07:56.736Z,18.10
2023-05-22T13:10:23.237Z,18.47
2023-05-22T13:12:51.463Z,17.83
2023-05-22T13:15:18.660Z,18.07
2023-05-22T13:17:45.718Z,18.73
2023-05-22T13:20:12.972Z,18.83
2023-05-22T13:22:40.351Z,18.73
2023-05-22T13:25:07.160Z,18.20
2023-05-22T13:27:34.025Z,20.73
2023-05-22T13:30:00.695Z,18.33
2023-05-22T13:32:27.278Z,19.73
2023-05-22T13:34:53.793Z,18.17
2023-05-22T13:37:20.663Z,20.73
2023-05-22T13:39:50.125Z,20.43
2023-05-22T13:42:16.691Z,19.97
2023-05-22T13:44:46.164Z,19.47
2023-05-22T13:47:12.884Z,19.90
2023-05-22T13:49:39.558Z,17.17
2023-05-22T13:52:06.102Z,19.93
2023-05-22T13:54:32.609Z,19.43
2023-05-22T13:56:59.970Z,20.17
2023-05-22T13:59:27.168Z,19.70
2023-05-22T14:01:53.669Z,19.37
2023-05-22T14:04:20.266Z,20.40
2023-05-22T14:06:46.844Z,17.93
2023-05-22T14:09:13.375Z,18.33
2023-05-22T14:11:39.836Z,19.53
2023-05-22T14:14:07.773Z,19.10
2023-05-22T14:16:34.403Z,19.83
2023-05-22T14:19:01.457Z,19.43
2023-05-22T14:21:28.191Z,18.70
2023-05-22T14:23:54.709Z,17.50
2023-05-22T14:26:21.547Z,19.27
2023-05-22T14:28:48.319Z,17.70
2023-05-22T14:31:14.848Z,20.17
2023-05-22T14:33:41.344Z,18.90
2023-05-22T14:36:07.961Z,19.00
2023-05-22T14:38:34.671Z,18.47
2023-05-22T14:41:01.670Z,18.27
2023-05-22T14:43:28.298Z,17.37
2023-05-22T14:45:56.460Z,18.37
2023-05-22T14:48:26.209Z,18.40
2023-05-22T14:50:55.867Z,18.97
2023-05-22T14:53:22.816Z,20.47
2023-05-22T14:55:49.354Z,18.63
2023-05-22T14:58:15.859Z,17.70
2023-05-22T15:00:42.811Z,19.20
2023-05-22T15:03:09.434Z,21.60
2023-05-22T15:05:36.112Z,21.83
2023-05-22T15:08:02.687Z,21.87
2023-05-22T15:10:29.214Z,24.03
2023-05-22T15:12:55.771Z,26.03
2023-05-22T15:15:24.828Z,21.07
2023-05-22T15:17:51.423Z,22.43
2023-05-22T15:20:18.090Z,21.40
2023-05-22T15:22:44.652Z,18.30
2023-05-22T15:25:14.853Z,16.23
2023-05-22T15:27:42.371Z,16.30
2023-05-22T15:30:10.052Z,14.80
2023-05-22T15:32:37.352Z,16.33
2023-05-22T15:35:05.594Z,17.00
2023-05-22T15:37:33.664Z,14.63
2023-05-22T15:40:06.782Z,14.40
2023-05-22T15:42:33.268Z,14.03
2023-05-22T15:45:00.240Z,13.40
2023-05-22T15:47:28.858Z,14.20
2023-05-22T15:49:55.832Z,14.23
2023-05-22T15:52:24.468Z,13.07
2023-05-22T15:54:51.154Z,13.97
2023-05-22T15:57:17.689Z,16.80
2023-05-22T15:59:47.011Z,17.77
2023-05-22T16:02:14.146Z,18.07
2023-05-22T16:04:40.697Z,17.60
2023-05-22T16:07:07.604Z,17.60
2023-05-22T16:09:35.283Z,16.80
2023-05-22T16:12:02.677Z,17.27
2023-05-22T16:14:29.429Z,19.60
2023-05-22T16:16:56.497Z,17.47
2023-05-22T16:19:23.394Z,19.37
2023-05-22T16:21:49.959Z,18.00
2023-05-22T16:24:16.453Z,18.57
2023-05-22T16:26:43.454Z,20.10
2023-05-22T16:29:09.959Z,18.30
2023-05-22T16:31:36.565Z,17.10
2023-05-22T16:34:04.142Z,16.27
2023-05-22T16:36:31.108Z,16.90
2023-05-22T16:38:57.677Z,17.50
2023-05-22T16:41:24.225Z,18.70
2023-05-22T16:43:50.809Z,16.90
2023-05-22T16:46:18.311Z,18.00
2023-05-22T16:48:45.837Z,19.53
2023-05-22T16:51:12.375Z,20.63
2023-05-22T16:53:40.646Z,19.57
2023-05-22T16:56:07.384Z,20.47
2023-05-22T16:58:34.027Z,18.40
2023-05-22T17:01:08.708Z,19.03
2023-05-22T17:03:38.189Z,21.27
2023-05-22T17:06:05.173Z,17.90
2023-05-22T17:08:32.180Z,21.20
2023-05-22T17:10:58.814Z,20.43
2023-05-22T17:13:25.426Z,25.13
2023-05-22T17:15:52.017Z,25.13
2023-05-22T17:18:22.399Z,24.17
2023-05-22T17:20:50.116Z,27.00
2023-05-22T17:23:17.587Z,23.97
2023-05-22T17:25:46.613Z,24.57
2023-05-22T17:28:14.326Z,24.40
2023-05-22T17:30:42.316Z,23.67
2023-05-22T17:33:09.208Z,23.23
2023-05-22T17:35:35.823Z,24.30
2023-05-22T17:38:02.338Z,27.90
2023-05-22T17:40:40.511Z,27.87
2023-05-22T17:43:11.255Z,27.87
2023-05-22T17:45:37.995Z,30.20
2023-05-22T17:48:06.490Z,24.37
2023-05-22T17:50:32.982Z,22.17
2023-05-22T17:52:59.482Z,18.47
2023-05-22T17:55:26.038Z,17.53
2023-05-22T17:57:52.676Z,19.97
2023-05-22T18:00:19.578Z,16.90
2023-05-22T18:02:47.581Z,22.70
2023-05-22T18:05:15.532Z,17.13
2023-05-22T18:07:42.109Z,16.40
2023-05-22T18:10:09.015Z,17.30
2023-05-22T18:12:37.984Z,17.20
2023-05-22T18:15:05.344Z,17.43
2023-05-22T18:17:32.450Z,18.30
2023-05-22T18:19:59.209Z,17.70
2023-05-22T18:22:25.660Z,18.57
2023-05-22T18:24:52.201Z,17.87
2023-05-22T18:27:18.700Z,18.70
2023-05-22T18:29:45.169Z,17.50
2023-05-22T18:32:13.559Z,18.70
2023-05-22T18:34:41.020Z,19.90
2023-05-22T18:37:07.558Z,18.30
2023-05-22T18:39:34.031Z,20.37
2023-05-22T18:42:00.624Z,20.60
2023-05-22T18:44:27.114Z,19.17
2023-05-22T18:46:54.198Z,21.27
2023-05-22T18:49:20.912Z,20.60
2023-05-22T18:51:47.480Z,20.53
2023-05-22T18:54:13.973Z,21.30
2023-05-22T18:56:40.618Z,19.17
2023-05-22T18:59:09.918Z,20.33
2023-05-22T19:01:36.538Z,19.50
2023-05-22T19:04:03.172Z,21.33
2023-05-22T19:06:30.498Z,25.87
2023-05-22T19:08:57.121Z,20.67
2023-05-22T19:11:23.687Z,21.93
2023-05-22T19:13:53.672Z,21.13
2023-05-22T19:16:20.430Z,22.80
2023-05-22T19:18:47.031Z,24.43
2023-05-22T19:21:13.606Z,21.57
2023-05-22T19:23:40.270Z,21.20
2023-05-22T19:26:06.819Z,22.37
2023-05-22T19:28:33.389Z,20.40
2023-05-22T19:31:03.073Z,22.33
2023-05-22T19:33:31.187Z,23.27
2023-05-22T19:35:58.802Z,21.90
2023-05-22T19:38:25.576Z,23.67
2023-05-22T19:40:52.101Z,25.50
2023-05-22T19:43:18.749Z,24.17
2023-05-22T19:45:45.649Z,25.63
2023-05-22T19:48:13.140Z,27.67
2023-05-22T19:50:41.196Z,29.23
2023-05-22T19:53:07.934Z,27.70
2023-05-22T19:55:34.406Z,27.90
2023-05-22T19:58:00.870Z,29.70
2023-05-22T20:00:31.387Z,29.93
2023-05-22T20:02:58.082Z,31.97
2023-05-22T20:05:25.878Z,34.50
2023-05-22T20:07:52.392Z,34.23
2023-05-22T20:10:18.969Z,36.47
2023-05-22T20:12:45.895Z,39.20
2023-05-22T20:15:14.831Z,36.40
2023-05-22T20:17:42.496Z,35.60
2023-05-22T20:20:13.498Z,37.27
2023-05-22T20:22:40.049Z,37.07
2023-05-22T20:25:07.147Z,34.37
2023-05-22T20:27:33.704Z,41.10
2023-05-22T20:30:00.496Z,38.00
2023-05-22T20:32:27.366Z,31.93
2023-05-22T20:34:55.316Z,36.60
2023-05-22T20:37:22.318Z,36.90
2023-05-22T20:39:50.206Z,35.77
2023-05-22T20:42:17.481Z,35.63
2023-05-22T20:44:44.125Z,36.47
2023-05-22T20:47:13.367Z,38.43
2023-05-22T20:49:40.418Z,37.17
2023-05-22T20:52:06.941Z,35.03
2023-05-22T20:54:34.626Z,36.33
2023-05-22T20:57:01.722Z,36.43
2023-05-22T20:59:29.023Z,36.57
2023-05-22T21:01:56.888Z,34.70
2023-05-22T21:04:23.928Z,33.53
2023-05-22T21:06:50.998Z,31.60
2023-05-22T21:09:17.557Z,30.10
2023-05-22T21:11:44.071Z,29.37
2023-05-22T21:14:10.648Z,28.63
2023-05-22T21:16:39.496Z,28.73
2023-05-22T21:19:07.477Z,27.40
2023-05-22T21:21:35.663Z,27.60
2023-05-22T21:24:02.234Z,28.80
2023-05-22T21:26:28.727Z,28.67
2023-05-22T21:28:55.332Z,27.73
2023-05-22T21:31:22.015Z,30.57
2023-05-22T21:33:54.333Z,32.20
2023-05-22T21:36:20.798Z,32.90
2023-05-22T21:38:51.584Z,34.40
2023-05-22T21:41:18.063Z,29.63
2023-05-22T21:43:47.230Z,31.13
2023-05-22T21:46:13.773Z,30.20
2023-05-22T21:48:40.482Z,28.33
2023-05-22T21:51:07.062Z,29.77
2023-05-22T21:53:33.591Z,27.50
2023-05-22T21:56:00.162Z,34.17
2023-05-22T21:58:26.731Z,19.80
2023-05-22T22:00:53.204Z,22.13
2023-05-22T22:03:19.723Z,20.07
2023-05-22T22:05:46.695Z,17.27
2023-05-22T22:08:14.334Z,16.47
2023-05-22T22:10:41.014Z,15.50
2023-05-22T22:13:07.825Z,16.43
2023-05-22T22:15:34.445Z,15.07
2023-05-22T22:18:02.385Z,14.77
2023-05-22T22:20:43.531Z,13.47
2023-05-22T22:23:12.547Z,15.17
2023-05-22T22:25:39.459Z,14.20
2023-05-22T22:28:07.206Z,12.27
2023-05-22T22:30:33.905Z,13.47
2023-05-22T22:33:00.636Z,14.37
2023-05-22T22:35:27.250Z,13.57
2023-05-22T22:37:53.795Z,12.93
2023-05-22T22:40:20.447Z,13.00
2023-05-22T22:42:46.978Z,13.27
2023-05-22T22:45:14.672Z,12.13
2023-05-22T22:47:41.322Z,12.83
2023-05-22T22:50:09.918Z,13.23
2023-05-22T22:52:37.831Z,12.47
2023-05-22T22:55:11.038Z,13.23
2023-05-22T22:57:37.637Z,11.97
2023-05-22T23:00:05.578Z,12.00
2023-05-22T23:02:32.067Z,13.53
2023-05-22T23:04:58.644Z,11.53
2023-05-22T23:07:25.533Z,11.40
2023-05-22T23:09:52.020Z,12.63
2023-05-22T23:12:20.435Z,13.80
2023-05-22T23:14:47.729Z,15.33
2023-05-22T23:17:14.274Z,13.93
2023-05-22T23:19:40.797Z,13.77
2023-05-22T23:22:07.443Z,13.73
2023-05-22T23:24:34.274Z,15.93
2023-05-22T23:27:01.368Z,14.80
2023-05-22T23:29:28.060Z,15.40
2023-05-22T23:31:55.430Z,14.70
2023-05-22T23:34:22.016Z,19.63
2023-05-22T23:36:51.761Z,16.87
2023-05-22T23:39:18.256Z,20.43
2023-05-22T23:41:45.389Z,20.23
2023-05-22T23:44:12.173Z,17.27
2023-05-22T23:46:39.741Z,19.33
2023-05-22T23:49:07.176Z,18.67
2023-05-22T23:51:33.680Z,19.17
2023-05-22T23:54:00.368Z,17.80
2023-05-22T23:56:26.864Z,16.63
2023-05-22T23:58:53.406Z,16.90
